sensor_id;sensor_type;location;lat;lon;timestamp;pressure;altitude;pressure_sealevel;temperature;humidity
39197;BME280;42889;51.112;13.772;2023-01-25T00:00:29;101156.63;;;0.01;100.00
39197;BME280;42889;51.112;13.772;2023-01-25T00:02:56;101159.28;;;0.01;100.00
39197;BME280;42889;51.112;13.772;2023-01-25T00:05:23;101155.81;;;-0.03;100.00
39197;BME280;42889;51.112;13.772;2023-01-25T00:07:50;101167.78;;;0.10;100.00
39197;BME280;42889;51.112;13.772;2023-01-25T00:10:16;101164.56;;;0.01;100.00
39197;BME280;42889;51.112;13.772;2023-01-25T00:12:43;101150.53;;;-0.03;100.00
39197;BME280;42889;51.112;13.772;2023-01-25T00:15:10;101155.47;;;0.09;100.00
39197;BME280;42889;51.112;13.772;2023-01-25T00:17:37;101152.09;;;0.04;100.00
39197;BME280;42889;51.112;13.772;2023-01-25T00:20:04;101154.00;;;-0.01;100.00
39197;BME280;42889;51.112;13.772;2023-01-25T00:22:31;101150.53;;;-0.03;100.00
39197;BME280;42889;51.112;13.772;2023-01-25T00:24:57;101151.56;;;-0.09;100.00
39197;BME280;42889;51.112;13.772;2023-01-25T00:27:24;101151.44;;;-0.04;100.00
39197;BME280;42889;51.112;13.772;2023-01-25T00:35:55;101151.66;;;-0.12;100.00
39197;BME280;42889;51.112;13.772;2023-01-25T00:38:42;101155.75;;;0.00;100.00
39197;BME280;42889;51.112;13.772;2023-01-25T00:41:10;101149.50;;;0.03;100.00
39197;BME280;42889;51.112;13.772;2023-01-25T00:43:37;101155.00;;;-0.05;100.00
39197;BME280;42889;51.112;13.772;2023-01-25T00:46:04;101153.19;;;-0.03;100.00
39197;BME280;42889;51.112;13.772;2023-01-25T00:48:30;101145.53;;;-0.14;100.00
39197;BME280;42889;51.112;13.772;2023-01-25T00:51:00;101144.56;;;-0.10;100.00
39197;BME280;42889;51.112;13.772;2023-01-25T00:53:27;101148.25;;;-0.17;100.00
39197;BME280;42889;51.112;13.772;2023-01-25T00:55:54;101147.06;;;-0.05;100.00
39197;BME280;42889;51.112;13.772;2023-01-25T00:58:20;101147.59;;;0.08;100.00
39197;BME280;42889;51.112;13.772;2023-01-25T01:00:47;101143.78;;;0.16;100.00
39197;BME280;42889;51.112;13.772;2023-01-25T01:03:14;101143.34;;;0.02;100.00
39197;BME280;42889;51.112;13.772;2023-01-25T01:05:44;101137.47;;;-0.09;100.00
39197;BME280;42889;51.112;13.772;2023-01-25T01:08:12;101142.34;;;0.06;100.00
39197;BME280;42889;51.112;13.772;2023-01-25T01:10:39;101133.19;;;0.16;100.00
39197;BME280;42889;51.112;13.772;2023-01-25T01:20:28;101129.47;;;-0.08;100.00
39197;BME280;42889;51.112;13.772;2023-01-25T01:22:55;101119.13;;;-0.15;100.00
39197;BME280;42889;51.112;13.772;2023-01-25T01:25:21;101120.59;;;-0.05;100.00
39197;BME280;42889;51.112;13.772;2023-01-25T01:27:48;101112.75;;;-0.08;100.00
39197;BME280;42889;51.112;13.772;2023-01-25T01:30:15;101113.34;;;0.02;100.00
39197;BME280;42889;51.112;13.772;2023-01-25T01:32:42;101105.63;;;-0.06;100.00
39197;BME280;42889;51.112;13.772;2023-01-25T01:35:08;101102.22;;;-0.10;100.00
39197;BME280;42889;51.112;13.772;2023-01-25T01:37:35;101097.03;;;-0.14;100.00
39197;BME280;42889;51.112;13.772;2023-01-25T01:40:02;101091.19;;;0.06;100.00
39197;BME280;42889;51.112;13.772;2023-01-25T01:42:29;101090.84;;;0.16;100.00
39197;BME280;42889;51.112;13.772;2023-01-25T01:44:56;101087.50;;;0.10;100.00
39197;BME280;42889;51.112;13.772;2023-01-25T01:47:37;101082.09;;;0.14;100.00
39197;BME280;42889;51.112;13.772;2023-01-25T01:50:20;101081.50;;;0.05;100.00
39197;BME280;42889;51.112;13.772;2023-01-25T01:52:49;101076.84;;;0.13;100.00
39197;BME280;42889;51.112;13.772;2023-01-25T01:55:19;101086.53;;;0.14;100.00
39197;BME280;42889;51.112;13.772;2023-01-25T01:57:54;101073.66;;;0.02;100.00
39197;BME280;42889;51.112;13.772;2023-01-25T02:00:26;101073.91;;;-0.08;100.00
39197;BME280;42889;51.112;13.772;2023-01-25T02:02:55;101067.63;;;-0.04;100.00
39197;BME280;42889;51.112;13.772;2023-01-25T02:06:03;101069.31;;;-0.01;100.00
39197;BME280;42889;51.112;13.772;2023-01-25T02:08:33;101059.81;;;-0.08;100.00
39197;BME280;42889;51.112;13.772;2023-01-25T02:11:03;101065.97;;;-0.08;100.00
39197;BME280;42889;51.112;13.772;2023-01-25T02:13:30;101064.19;;;-0.07;100.00
39197;BME280;42889;51.112;13.772;2023-01-25T02:15:58;101066.78;;;-0.06;100.00
39197;BME280;42889;51.112;13.772;2023-01-25T02:18:27;101059.25;;;0.10;100.00
39197;BME280;42889;51.112;13.772;2023-01-25T02:20:56;101052.38;;;0.05;100.00
39197;BME280;42889;51.112;13.772;2023-01-25T02:25:56;101046.72;;;0.17;100.00
39197;BME280;42889;51.112;13.772;2023-01-25T02:28:33;101041.66;;;0.09;100.00
39197;BME280;42889;51.112;13.772;2023-01-25T02:31:01;101032.66;;;0.15;100.00
39197;BME280;42889;51.112;13.772;2023-01-25T02:33:29;101032.66;;;0.15;100.00
39197;BME280;42889;51.112;13.772;2023-01-25T02:36:11;101035.53;;;0.07;100.00
39197;BME280;42889;51.112;13.772;2023-01-25T02:38:59;101029.66;;;-0.03;100.00
39197;BME280;42889;51.112;13.772;2023-01-25T02:41:39;101026.94;;;-0.01;100.00
39197;BME280;42889;51.112;13.772;2023-01-25T02:44:15;101022.72;;;-0.07;100.00
39197;BME280;42889;51.112;13.772;2023-01-25T02:46:43;101016.19;;;0.05;100.00
39197;BME280;42889;51.112;13.772;2023-01-25T02:49:16;101014.56;;;0.01;100.00
39197;BME280;42889;51.112;13.772;2023-01-25T02:51:46;101017.16;;;0.03;100.00
39197;BME280;42889;51.112;13.772;2023-01-25T02:54:14;101006.47;;;0.06;100.00
39197;BME280;42889;51.112;13.772;2023-01-25T02:56:41;101014.38;;;0.07;100.00
39197;BME280;42889;51.112;13.772;2023-01-25T02:59:10;101007.63;;;-0.03;100.00
39197;BME280;42889;51.112;13.772;2023-01-25T03:01:41;101003.97;;;0.01;100.00
39197;BME280;42889;51.112;13.772;2023-01-25T03:04:09;101009.03;;;0.09;100.00
39197;BME280;42889;51.112;13.772;2023-01-25T03:06:36;101011.84;;;0.03;100.00
39197;BME280;42889;51.112;13.772;2023-01-25T03:09:06;101010.00;;;0.06;100.00
39197;BME280;42889;51.112;13.772;2023-01-25T03:11:33;101007.19;;;0.11;100.00
39197;BME280;42889;51.112;13.772;2023-01-25T03:14:00;101014.50;;;0.03;100.00
39197;BME280;42889;51.112;13.772;2023-01-25T03:16:29;101008.44;;;-0.01;100.00
39197;BME280;42889;51.112;13.772;2023-01-25T03:18:56;101010.94;;;0.04;100.00
39197;BME280;42889;51.112;13.772;2023-01-25T03:21:23;101005.59;;;0.05;100.00
39197;BME280;42889;51.112;13.772;2023-01-25T03:23:55;101001.41;;;-0.02;100.00
39197;BME280;42889;51.112;13.772;2023-01-25T03:26:24;101004.16;;;-0.05;100.00
39197;BME280;42889;51.112;13.772;2023-01-25T03:29:07;100994.47;;;-0.06;100.00
39197;BME280;42889;51.112;13.772;2023-01-25T03:31:37;101003.25;;;-0.04;100.00
39197;BME280;42889;51.112;13.772;2023-01-25T03:34:05;100995.19;;;-0.01;100.00
39197;BME280;42889;51.112;13.772;2023-01-25T03:36:36;100994.78;;;0.13;100.00
39197;BME280;42889;51.112;13.772;2023-01-25T03:39:03;101001.13;;;0.07;100.00
39197;BME280;42889;51.112;13.772;2023-01-25T03:41:34;100997.09;;;-0.06;100.00
39197;BME280;42889;51.112;13.772;2023-01-25T03:44:01;100993.56;;;-0.05;100.00
39197;BME280;42889;51.112;13.772;2023-01-25T03:46:28;100992.13;;;0.13;100.00
39197;BME280;42889;51.112;13.772;2023-01-25T03:48:56;100993.41;;;-0.01;100.00
39197;BME280;42889;51.112;13.772;2023-01-25T03:51:22;100997.81;;;0.01;100.00
39197;BME280;42889;51.112;13.772;2023-01-25T03:53:49;100996.97;;;-0.02;100.00
39197;BME280;42889;51.112;13.772;2023-01-25T03:56:16;101000.78;;;-0.10;100.00
39197;BME280;42889;51.112;13.772;2023-01-25T03:59:21;101007.84;;;-0.11;100.00
39197;BME280;42889;51.112;13.772;2023-01-25T04:01:48;100993.41;;;-0.01;100.00
39197;BME280;42889;51.112;13.772;2023-01-25T04:04:15;100993.03;;;-0.16;100.00
39197;BME280;42889;51.112;13.772;2023-01-25T04:06:44;100992.13;;;-0.15;100.00
39197;BME280;42889;51.112;13.772;2023-01-25T04:09:10;100990.81;;;-0.02;100.00
39197;BME280;42889;51.112;13.772;2023-01-25T04:11:48;100983.59;;;0.03;100.00
39197;BME280;42889;51.112;13.772;2023-01-25T04:14:14;100983.81;;;-0.03;100.00
39197;BME280;42889;51.112;13.772;2023-01-25T04:16:50;100973.88;;;0.04;100.00
39197;BME280;42889;51.112;13.772;2023-01-25T04:19:37;100972.41;;;-0.05;100.00
39197;BME280;42889;51.112;13.772;2023-01-25T04:22:08;100983.19;;;-0.13;100.00
39197;BME280;42889;51.112;13.772;2023-01-25T04:24:37;100982.38;;;-0.15;100.00
39197;BME280;42889;51.112;13.772;2023-01-25T04:27:05;100977.53;;;-0.01;100.00
39197;BME280;42889;51.112;13.772;2023-01-25T04:29:38;100979.13;;;0.05;100.00
39197;BME280;42889;51.112;13.772;2023-01-25T04:32:11;100977.25;;;0.09;100.00
39197;BME280;42889;51.112;13.772;2023-01-25T04:34:38;100973.88;;;0.04;100.00
39197;BME280;42889;51.112;13.772;2023-01-25T04:37:09;100976.59;;;0.02;100.00
39197;BME280;42889;51.112;13.772;2023-01-25T04:39:45;100978.50;;;-0.03;100.00
39197;BME280;42889;51.112;13.772;2023-01-25T04:42:11;100977.69;;;-0.05;100.00
39197;BME280;42889;51.112;13.772;2023-01-25T04:44:39;100980.47;;;-0.10;100.00
39197;BME280;42889;51.112;13.772;2023-01-25T04:47:05;100971.81;;;-0.15;100.00
39197;BME280;42889;51.112;13.772;2023-01-25T04:49:32;100983.44;;;-0.20;100.00
39197;BME280;42889;51.112;13.772;2023-01-25T04:51:59;100975.72;;;-0.28;100.00
39197;BME280;42889;51.112;13.772;2023-01-25T04:54:26;100968.25;;;-0.14;100.00
39197;BME280;42889;51.112;13.772;2023-01-25T04:56:53;100974.41;;;-0.13;100.00
39197;BME280;42889;51.112;13.772;2023-01-25T04:59:19;100982.00;;;-0.03;100.00
39197;BME280;42889;51.112;13.772;2023-01-25T05:01:46;100971.34;;;0.01;100.00
39197;BME280;42889;51.112;13.772;2023-01-25T05:04:13;100969.44;;;0.04;100.00
39197;BME280;42889;51.112;13.772;2023-01-25T05:06:43;100973.22;;;-0.03;100.00
39197;BME280;42889;51.112;13.772;2023-01-25T05:09:09;100974.75;;;0.04;100.00
39197;BME280;42889;51.112;13.772;2023-01-25T05:11:37;100976.84;;;-0.07;100.00
39197;BME280;42889;51.112;13.772;2023-01-25T05:14:11;100967.47;;;-0.17;100.00
39197;BME280;42889;51.112;13.772;2023-01-25T05:16:37;100959.53;;;0.11;100.00
39197;BME280;42889;51.112;13.772;2023-01-25T05:19:08;100963.75;;;0.16;100.00
39197;BME280;42889;51.112;13.772;2023-01-25T05:21:45;100959.38;;;0.17;100.00
39197;BME280;42889;51.112;13.772;2023-01-25T05:24:32;100960.44;;;0.11;100.00
39197;BME280;42889;51.112;13.772;2023-01-25T05:27:03;100957.53;;;0.19;100.00
39197;BME280;42889;51.112;13.772;2023-01-25T05:30:05;100955.28;;;0.07;100.00
39197;BME280;42889;51.112;13.772;2023-01-25T05:33:01;100946.47;;;0.06;100.00
39197;BME280;42889;51.112;13.772;2023-01-25T05:35:29;100949.13;;;0.06;100.00
39197;BME280;42889;51.112;13.772;2023-01-25T05:37:56;100945.53;;;0.07;100.00
39197;BME280;42889;51.112;13.772;2023-01-25T05:40:25;100944.75;;;0.04;100.00
39197;BME280;42889;51.112;13.772;2023-01-25T05:42:55;100939.63;;;-0.01;100.00
39197;BME280;42889;51.112;13.772;2023-01-25T05:45:24;100941.66;;;-0.09;100.00
39197;BME280;42889;51.112;13.772;2023-01-25T05:47:54;100939.13;;;-0.14;100.00
39197;BME280;42889;51.112;13.772;2023-01-25T05:50:22;100937.47;;;-0.16;100.00
39197;BME280;42889;51.112;13.772;2023-01-25T05:53:09;100935.69;;;-0.16;100.00
39197;BME280;42889;51.112;13.772;2023-01-25T05:55:38;100930.88;;;-0.03;100.00
39197;BME280;42889;51.112;13.772;2023-01-25T05:58:08;100931.53;;;0.04;100.00
39197;BME280;42889;51.112;13.772;2023-01-25T06:00:36;100929.28;;;-0.09;100.00
39197;BME280;42889;51.112;13.772;2023-01-25T06:03:03;100928.41;;;-0.09;100.00
39197;BME280;42889;51.112;13.772;2023-01-25T06:05:33;100931.66;;;-0.01;100.00
39197;BME280;42889;51.112;13.772;2023-01-25T06:08:00;100929.88;;;0.01;100.00
39197;BME280;42889;51.112;13.772;2023-01-25T06:10:48;100929.75;;;0.04;100.00
39197;BME280;42889;51.112;13.772;2023-01-25T06:13:14;100924.94;;;0.17;100.00
39197;BME280;42889;51.112;13.772;2023-01-25T06:15:41;100924.56;;;0.01;100.00
39197;BME280;42889;51.112;13.772;2023-01-25T06:18:32;100920.41;;;-0.08;100.00
39197;BME280;42889;51.112;13.772;2023-01-25T06:21:18;100924.66;;;-0.02;100.00
39197;BME280;42889;51.112;13.772;2023-01-25T06:23:45;100920.22;;;-0.02;100.00
39197;BME280;42889;51.112;13.772;2023-01-25T06:26:13;100928.69;;;0.10;100.00
39197;BME280;42889;51.112;13.772;2023-01-25T06:28:40;100924.97;;;0.15;100.00
39197;BME280;42889;51.112;13.772;2023-01-25T06:31:10;100929.41;;;0.15;100.00
39197;BME280;42889;51.112;13.772;2023-01-25T06:33:38;100921.94;;;0.01;100.00
39197;BME280;42889;51.112;13.772;2023-01-25T06:36:09;100923.22;;;-0.12;100.00
39197;BME280;42889;51.112;13.772;2023-01-25T06:38:36;100919.09;;;-0.21;100.00
39197;BME280;42889;51.112;13.772;2023-01-25T06:41:06;100919.88;;;-0.19;100.00
39197;BME280;42889;51.112;13.772;2023-01-25T06:43:33;100916.97;;;-0.10;100.00
39197;BME280;42889;51.112;13.772;2023-01-25T06:46:05;100919.81;;;0.11;100.00
39197;BME280;42889;51.112;13.772;2023-01-25T06:48:32;100919.47;;;-0.05;100.00
39197;BME280;42889;51.112;13.772;2023-01-25T06:51:02;100925.50;;;0.00;100.00
39197;BME280;42889;51.112;13.772;2023-01-25T06:53:30;100930.41;;;-0.16;100.00
39197;BME280;42889;51.112;13.772;2023-01-25T06:56:04;100920.59;;;0.14;100.00
39197;BME280;42889;51.112;13.772;2023-01-25T06:58:32;100924.50;;;0.03;100.00
39197;BME280;42889;51.112;13.772;2023-01-25T07:01:02;100920.66;;;0.13;100.00
39197;BME280;42889;51.112;13.772;2023-01-25T07:03:30;100913.78;;;0.07;100.00
39197;BME280;42889;51.112;13.772;2023-01-25T07:06:02;100915.59;;;0.05;100.00
39197;BME280;42889;51.112;13.772;2023-01-25T07:08:29;100905.84;;;0.07;100.00
39197;BME280;42889;51.112;13.772;2023-01-25T07:10:57;100907.66;;;0.05;100.00
39197;BME280;42889;51.112;13.772;2023-01-25T07:13:25;100900.59;;;0.06;100.00
39197;BME280;42889;51.112;13.772;2023-01-25T07:16:00;100898.66;;;0.11;100.00
39197;BME280;42889;51.112;13.772;2023-01-25T07:18:28;100891.47;;;0.14;100.00
39197;BME280;42889;51.112;13.772;2023-01-25T07:21:06;100888.06;;;0.11;100.00
39197;BME280;42889;51.112;13.772;2023-01-25T07:23:33;100895.47;;;-0.01;100.00
39197;BME280;42889;51.112;13.772;2023-01-25T07:26:00;100890.81;;;0.08;100.00
39197;BME280;42889;51.112;13.772;2023-01-25T07:28:27;100883.81;;;0.07;100.00
39197;BME280;42889;51.112;13.772;2023-01-25T07:30:54;100888.25;;;0.06;100.00
39197;BME280;42889;51.112;13.772;2023-01-25T07:33:20;100883.16;;;-0.02;100.00
39197;BME280;42889;51.112;13.772;2023-01-25T07:35:47;100872.44;;;0.03;100.00
39197;BME280;42889;51.112;13.772;2023-01-25T07:38:16;100872.19;;;0.11;100.00
39197;BME280;42889;51.112;13.772;2023-01-25T07:40:43;100870.50;;;0.08;100.00
39197;BME280;42889;51.112;13.772;2023-01-25T07:43:09;100870.09;;;0.20;100.00
39197;BME280;42889;51.112;13.772;2023-01-25T07:45:36;100862.31;;;0.16;100.00
39197;BME280;42889;51.112;13.772;2023-01-25T07:48:07;100860.63;;;0.13;100.00
39197;BME280;42889;51.112;13.772;2023-01-25T07:50:36;100861.25;;;0.21;100.00
39197;BME280;42889;51.112;13.772;2023-01-25T07:53:02;100862.94;;;0.24;100.00
39197;BME280;42889;51.112;13.772;2023-01-25T07:55:29;100861.28;;;0.20;100.00
39197;BME280;42889;51.112;13.772;2023-01-25T07:57:56;100859.41;;;0.23;100.00
39197;BME280;42889;51.112;13.772;2023-01-25T08:00:23;100859.44;;;0.22;100.00
39197;BME280;42889;51.112;13.772;2023-01-25T08:02:50;100854.91;;;0.01;100.00
39197;BME280;42889;51.112;13.772;2023-01-25T08:05:18;100845.25;;;-0.02;100.00
39197;BME280;42889;51.112;13.772;2023-01-25T08:07:45;100846.13;;;-0.02;100.00
39197;BME280;42889;51.112;13.772;2023-01-25T08:10:13;100850.41;;;0.03;100.00
39197;BME280;42889;51.112;13.772;2023-01-25T08:12:44;100846.13;;;-0.02;100.00
39197;BME280;42889;51.112;13.772;2023-01-25T08:15:12;100846.63;;;0.10;100.00
39197;BME280;42889;51.112;13.772;2023-01-25T08:17:39;100843.56;;;0.22;100.00
39197;BME280;42889;51.112;13.772;2023-01-25T08:20:07;100838.59;;;0.13;100.00
39197;BME280;42889;51.112;13.772;2023-01-25T08:22:34;100840.88;;;-0.03;100.00
39197;BME280;42889;51.112;13.772;2023-01-25T08:25:02;100846.03;;;0.02;100.00
39197;BME280;42889;51.112;13.772;2023-01-25T08:27:28;100843.59;;;-0.05;100.00
39197;BME280;42889;51.112;13.772;2023-01-25T08:29:55;100838.97;;;0.02;100.00
39197;BME280;42889;51.112;13.772;2023-01-25T08:32:22;100842.56;;;-0.01;100.00
39197;BME280;42889;51.112;13.772;2023-01-25T08:34:48;100841.69;;;-0.01;100.00
39197;BME280;42889;51.112;13.772;2023-01-25T08:37:15;100843.78;;;0.16;100.00
39197;BME280;42889;51.112;13.772;2023-01-25T08:39:42;100846.59;;;0.11;100.00
39197;BME280;42889;51.112;13.772;2023-01-25T08:42:09;100840.31;;;0.14;100.00
39197;BME280;42889;51.112;13.772;2023-01-25T08:44:35;100843.13;;;0.09;100.00
39197;BME280;42889;51.112;13.772;2023-01-25T08:47:02;100841.31;;;0.11;100.00
39197;BME280;42889;51.112;13.772;2023-01-25T08:49:29;100842.38;;;0.06;100.00
39197;BME280;42889;51.112;13.772;2023-01-25T08:51:56;100831.72;;;0.07;100.00
39197;BME280;42889;51.112;13.772;2023-01-25T08:54:23;100835.38;;;0.30;100.00
39197;BME280;42889;51.112;13.772;2023-01-25T08:56:50;100832.78;;;0.28;100.00
39197;BME280;42889;51.112;13.772;2023-01-25T08:59:17;100827.50;;;0.28;100.00
39197;BME280;42889;51.112;13.772;2023-01-25T09:01:44;100837.97;;;0.31;100.00
39197;BME280;42889;51.112;13.772;2023-01-25T09:04:10;100835.25;;;0.33;100.00
39197;BME280;42889;51.112;13.772;2023-01-25T09:06:37;100826.56;;;0.29;100.00
39197;BME280;42889;51.112;13.772;2023-01-25T09:09:03;100822.19;;;0.28;100.00
39197;BME280;42889;51.112;13.772;2023-01-25T09:11:32;100819.34;;;0.34;100.00
39197;BME280;42889;51.112;13.772;2023-01-25T09:13:59;100824.84;;;0.28;100.00
39197;BME280;42889;51.112;13.772;2023-01-25T09:16:26;100818.63;;;0.29;100.00
39197;BME280;42889;51.112;13.772;2023-01-25T09:18:58;100819.56;;;0.28;100.00
39197;BME280;42889;51.112;13.772;2023-01-25T09:21:25;100810.75;;;0.28;100.00
39197;BME280;42889;51.112;13.772;2023-01-25T09:23:52;100805.34;;;0.31;100.00
39197;BME280;42889;51.112;13.772;2023-01-25T09:26:39;100797.94;;;0.40;100.00
39197;BME280;42889;51.112;13.772;2023-01-25T09:29:11;100796.84;;;0.46;100.00
39197;BME280;42889;51.112;13.772;2023-01-25T09:31:38;100799.50;;;0.46;100.00
39197;BME280;42889;51.112;13.772;2023-01-25T09:34:22;100802.84;;;0.51;100.00
39197;BME280;42889;51.112;13.772;2023-01-25T09:36:48;100795.94;;;0.47;100.00
39197;BME280;42889;51.112;13.772;2023-01-25T09:39:15;100806.84;;;0.38;100.00
39197;BME280;42889;51.112;13.772;2023-01-25T09:50:32;100793.78;;;0.33;100.00
39197;BME280;42889;51.112;13.772;2023-01-25T09:55:41;100802.19;;;0.19;100.00
39197;BME280;42889;51.112;13.772;2023-01-25T09:58:19;100802.25;;;0.18;100.00
39197;BME280;42889;51.112;13.772;2023-01-25T10:00:49;100799.97;;;0.32;100.00
39197;BME280;42889;51.112;13.772;2023-01-25T10:03:51;100791.81;;;0.38;100.00
39197;BME280;42889;51.112;13.772;2023-01-25T10:06:22;100796.78;;;0.47;100.00
39197;BME280;42889;51.112;13.772;2023-01-25T10:08:54;100797.06;;;0.40;100.00
39197;BME280;42889;51.112;13.772;2023-01-25T10:11:36;100793.38;;;0.44;100.00
39197;BME280;42889;51.112;13.772;2023-01-25T10:14:10;100783.28;;;0.55;100.00
39197;BME280;42889;51.112;13.772;2023-01-25T10:16:49;100787.50;;;0.61;100.00
39197;BME280;42889;51.112;13.772;2023-01-25T10:22:00;100778.50;;;0.65;100.00
39197;BME280;42889;51.112;13.772;2023-01-25T10:29:47;100767.66;;;0.47;100.00
39197;BME280;42889;51.112;13.772;2023-01-25T10:32:26;100773.19;;;0.41;100.00
39197;BME280;42889;51.112;13.772;2023-01-25T10:34:56;100765.72;;;0.52;100.00
39197;BME280;42889;51.112;13.772;2023-01-25T10:37:25;100767.66;;;0.47;100.00
39197;BME280;42889;51.112;13.772;2023-01-25T10:40:03;100756.31;;;0.44;100.00
39197;BME280;42889;51.112;13.772;2023-01-25T10:42:37;100749.28;;;0.43;100.00
39197;BME280;42889;51.112;13.772;2023-01-25T10:45:12;100741.16;;;0.24;100.00
39197;BME280;42889;51.112;13.772;2023-01-25T10:47:47;100741.94;;;0.51;100.00
39197;BME280;42889;51.112;13.772;2023-01-25T10:50:43;100723.94;;;0.61;100.00
39197;BME280;42889;51.112;13.772;2023-01-25T10:53:27;100730.41;;;0.52;100.00
39197;BME280;42889;51.112;13.772;2023-01-25T10:58:41;100723.56;;;0.70;100.00
39197;BME280;42889;51.112;13.772;2023-01-25T11:01:35;100717.88;;;0.57;100.00
39197;BME280;42889;51.112;13.772;2023-01-25T11:04:01;100706.81;;;0.69;100.00
39197;BME280;42889;51.112;13.772;2023-01-25T11:08:59;100701.13;;;0.57;100.00
39197;BME280;42889;51.112;13.772;2023-01-25T11:11:35;100696.53;;;0.60;100.00
39197;BME280;42889;51.112;13.772;2023-01-25T11:14:14;100693.97;;;0.59;100.00
39197;BME280;42889;51.112;13.772;2023-01-25T11:16:44;100696.53;;;0.60;100.00
39197;BME280;42889;51.112;13.772;2023-01-25T11:21:54;100696.59;;;0.59;100.00
39197;BME280;42889;51.112;13.772;2023-01-25T11:24:25;100694.28;;;0.49;100.00
39197;BME280;42889;51.112;13.772;2023-01-25T11:27:11;100683.66;;;0.51;100.00
39197;BME280;42889;51.112;13.772;2023-01-25T11:29:38;100680.53;;;0.63;100.00
39197;BME280;42889;51.112;13.772;2023-01-25T11:32:15;100680.78;;;0.57;100.00
39197;BME280;42889;51.112;13.772;2023-01-25T11:34:49;100672.03;;;0.55;100.00
39197;BME280;42889;51.112;13.772;2023-01-25T11:37:25;100671.16;;;0.55;100.00
39197;BME280;42889;51.112;13.772;2023-01-25T11:48:27;100644.41;;;0.84;100.00
39197;BME280;42889;51.112;13.772;2023-01-25T11:51:01;100641.69;;;0.86;100.00
39197;BME280;42889;51.112;13.772;2023-01-25T12:05:20;100608.16;;;0.63;100.00
39197;BME280;42889;51.112;13.772;2023-01-25T12:14:06;100595.59;;;0.68;100.00
39197;BME280;42889;51.112;13.772;2023-01-25T12:30:27;100569.88;;;0.70;100.00
39197;BME280;42889;51.112;13.772;2023-01-25T12:33:07;100558.63;;;0.65;100.00
39197;BME280;42889;51.112;13.772;2023-01-25T12:38:35;100550.84;;;0.82;100.00
39197;BME280;42889;51.112;13.772;2023-01-25T12:41:25;100545.00;;;0.74;100.00
39197;BME280;42889;51.112;13.772;2023-01-25T12:47:09;100537.16;;;0.71;100.00
39197;BME280;42889;51.112;13.772;2023-01-25T12:49:51;100535.38;;;0.71;100.00
39197;BME280;42889;51.112;13.772;2023-01-25T12:52:36;100529.66;;;0.60;100.00
39197;BME280;42889;51.112;13.772;2023-01-25T12:55:11;100537.38;;;0.66;100.00
39197;BME280;42889;51.112;13.772;2023-01-25T13:00:43;100535.19;;;0.32;100.00
39197;BME280;42889;51.112;13.772;2023-01-25T13:06:28;100521.84;;;0.35;100.00
39197;BME280;42889;51.112;13.772;2023-01-25T13:09:03;100511.53;;;0.49;100.00
39197;BME280;42889;51.112;13.772;2023-01-25T13:11:41;100511.44;;;0.52;100.00
39197;BME280;42889;51.112;13.772;2023-01-25T13:16:46;100512.59;;;0.67;100.00
39197;BME280;42889;51.112;13.772;2023-01-25T13:22:01;100504.59;;;0.69;100.00
39197;BME280;42889;51.112;13.772;2023-01-25T13:24:33;100498.88;;;0.58;100.00
39197;BME280;42889;51.112;13.772;2023-01-25T13:27:09;100499.91;;;0.53;100.00
39197;BME280;42889;51.112;13.772;2023-01-25T13:40:27;100471.38;;;0.60;100.00
39197;BME280;42889;51.112;13.772;2023-01-25T13:43:01;100480.94;;;0.64;100.00
39197;BME280;42889;51.112;13.772;2023-01-25T13:45:34;100474.69;;;0.65;100.00
39197;BME280;42889;51.112;13.772;2023-01-25T13:48:10;100467.50;;;0.69;100.00
39197;BME280;42889;51.112;13.772;2023-01-25T13:51:07;100464.66;;;0.73;100.00
39197;BME280;42889;51.112;13.772;2023-01-25T13:53:35;100458.13;;;0.60;100.00
39197;BME280;42889;51.112;13.772;2023-01-25T13:56:24;100452.59;;;0.66;100.00
39197;BME280;42889;51.112;13.772;2023-01-25T13:58:51;100457.53;;;0.53;100.00
39197;BME280;42889;51.112;13.772;2023-01-25T14:01:19;100449.97;;;0.44;100.00
39197;BME280;42889;51.112;13.772;2023-01-25T14:03:51;100451.75;;;0.44;100.00
39197;BME280;42889;51.112;13.772;2023-01-25T14:06:33;100455.56;;;0.37;100.00
39197;BME280;42889;51.112;13.772;2023-01-25T14:09:04;100449.50;;;0.35;100.00
39197;BME280;42889;51.112;13.772;2023-01-25T14:11:35;100443.25;;;0.36;100.00
39197;BME280;42889;51.112;13.772;2023-01-25T14:17:21;100437.28;;;0.31;100.00
39197;BME280;42889;51.112;13.772;2023-01-25T14:19:54;100434.28;;;0.18;100.00
39197;BME280;42889;51.112;13.772;2023-01-25T14:22:30;100434.03;;;0.24;100.00
39197;BME280;42889;51.112;13.772;2023-01-25T14:25:19;100427.63;;;0.30;100.00
39197;BME280;42889;51.112;13.772;2023-01-25T14:27:50;100436.94;;;0.40;100.00
39197;BME280;42889;51.112;13.772;2023-01-25T14:30:21;100434.28;;;0.40;100.00
39197;BME280;42889;51.112;13.772;2023-01-25T14:32:50;100428.31;;;0.35;100.00
39197;BME280;42889;51.112;13.772;2023-01-25T14:35:39;100427.56;;;0.31;100.00
39197;BME280;42889;51.112;13.772;2023-01-25T14:38:25;100422.34;;;0.30;100.00
39197;BME280;42889;51.112;13.772;2023-01-25T14:41:10;100415.38;;;0.27;100.00
39197;BME280;42889;51.112;13.772;2023-01-25T14:43:45;100414.81;;;0.19;100.00
39197;BME280;42889;51.112;13.772;2023-01-25T14:48:47;100407.81;;;0.18;100.00
39197;BME280;42889;51.112;13.772;2023-01-25T14:51:21;100405.59;;;0.29;100.00
39197;BME280;42889;51.112;13.772;2023-01-25T14:53:55;100397.84;;;0.24;100.00
39197;BME280;42889;51.112;13.772;2023-01-25T14:56:26;100393.84;;;0.14;100.00